sensor_id;sensor_type;location;lat;lon;timestamp;P1;durP1;ratioP1;P2;durP2;ratioP2
75746;SDS011;64363;52.198;21.020;2023-02-26T00:00:11;9.40;;;5.00;;
75746;SDS011;64363;52.198;21.020;2023-02-26T00:02:59;12.63;;;5.30;;
75746;SDS011;64363;52.198;21.020;2023-02-26T00:05:26;10.77;;;5.05;;
75746;SDS011;64363;52.198;21.020;2023-02-26T00:07:51;9.32;;;4.90;;
75746;SDS011;64363;52.198;21.020;2023-02-26T00:10:18;8.38;;;4.25;;
75746;SDS011;64363;52.198;21.020;2023-02-26T00:12:44;11.43;;;4.22;;
75746;SDS011;64363;52.198;21.020;2023-02-26T00:15:10;7.50;;;4.28;;
75746;SDS011;64363;52.198;21.020;2023-02-26T00:20:14;8.48;;;4.82;;
75746;SDS011;64363;52.198;21.020;2023-02-26T00:22:41;8.07;;;4.20;;
75746;SDS011;64363;52.198;21.020;2023-02-26T00:25:07;9.15;;;4.22;;
75746;SDS011;64363;52.198;21.020;2023-02-26T00:27:33;6.05;;;3.70;;
75746;SDS011;64363;52.198;21.020;2023-02-26T00:30:01;8.43;;;4.03;;
75746;SDS011;64363;52.198;21.020;2023-02-26T00:32:28;10.50;;;4.68;;
75746;SDS011;64363;52.198;21.020;2023-02-26T00:34:55;9.98;;;3.90;;
75746;SDS011;64363;52.198;21.020;2023-02-26T00:37:33;7.38;;;3.97;;
75746;SDS011;64363;52.198;21.020;2023-02-26T00:40:14;8.90;;;3.67;;
75746;SDS011;64363;52.198;21.020;2023-02-26T00:42:41;7.78;;;4.18;;
75746;SDS011;64363;52.198;21.020;2023-02-26T00:45:08;8.18;;;3.75;;
75746;SDS011;64363;52.198;21.020;2023-02-26T00:47:38;9.10;;;3.40;;
75746;SDS011;64363;52.198;21.020;2023-02-26T00:50:23;8.23;;;3.85;;
75746;SDS011;64363;52.198;21.020;2023-02-26T00:55:33;10.30;;;4.45;;
75746;SDS011;64363;52.198;21.020;2023-02-26T00:57:59;9.32;;;4.05;;
75746;SDS011;64363;52.198;21.020;2023-02-26T01:00:25;10.70;;;4.20;;
75746;SDS011;64363;52.198;21.020;2023-02-26T01:02:51;8.77;;;3.53;;
75746;SDS011;64363;52.198;21.020;2023-02-26T01:05:17;7.53;;;3.42;;
75746;SDS011;64363;52.198;21.020;2023-02-26T01:07:50;7.63;;;3.45;;
75746;SDS011;64363;52.198;21.020;2023-02-26T01:10:35;7.00;;;3.83;;
75746;SDS011;64363;52.198;21.020;2023-02-26T01:13:01;7.03;;;3.20;;
75746;SDS011;64363;52.198;21.020;2023-02-26T01:15:27;5.82;;;3.20;;
75746;SDS011;64363;52.198;21.020;2023-02-26T01:20:35;7.63;;;3.42;;
75746;SDS011;64363;52.198;21.020;2023-02-26T01:23:11;8.85;;;3.65;;
75746;SDS011;64363;52.198;21.020;2023-02-26T01:28:22;7.22;;;3.22;;
75746;SDS011;64363;52.198;21.020;2023-02-26T01:30:48;7.80;;;3.33;;
75746;SDS011;64363;52.198;21.020;2023-02-26T01:33:27;6.40;;;3.35;;
75746;SDS011;64363;52.198;21.020;2023-02-26T01:36:00;7.25;;;3.50;;
75746;SDS011;64363;52.198;21.020;2023-02-26T01:41:13;6.47;;;3.30;;
75746;SDS011;64363;52.198;21.020;2023-02-26T01:49:03;9.88;;;4.10;;
75746;SDS011;64363;52.198;21.020;2023-02-26T01:51:47;10.38;;;4.07;;
75746;SDS011;64363;52.198;21.020;2023-02-26T01:54:17;8.55;;;4.15;;
75746;SDS011;64363;52.198;21.020;2023-02-26T01:56:46;6.93;;;4.15;;
75746;SDS011;64363;52.198;21.020;2023-02-26T01:59:16;8.15;;;4.40;;
75746;SDS011;64363;52.198;21.020;2023-02-26T02:01:49;10.20;;;4.25;;
75746;SDS011;64363;52.198;21.020;2023-02-26T02:04:18;11.52;;;4.35;;
75746;SDS011;64363;52.198;21.020;2023-02-26T02:06:45;8.77;;;4.53;;
75746;SDS011;64363;52.198;21.020;2023-02-26T02:09:12;8.30;;;4.20;;
75746;SDS011;64363;52.198;21.020;2023-02-26T02:33:57;9.60;;;4.25;;
75746;SDS011;64363;52.198;21.020;2023-02-26T02:36:33;8.38;;;3.88;;
75746;SDS011;64363;52.198;21.020;2023-02-26T02:39:07;10.75;;;5.30;;
75746;SDS011;64363;52.198;21.020;2023-02-26T02:41:43;9.55;;;4.85;;
75746;SDS011;64363;52.198;21.020;2023-02-26T02:44:13;10.70;;;5.03;;
75746;SDS011;64363;52.198;21.020;2023-02-26T02:46:42;11.60;;;5.05;;
75746;SDS011;64363;52.198;21.020;2023-02-26T02:49:12;8.60;;;4.05;;
75746;SDS011;64363;52.198;21.020;2023-02-26T02:51:51;8.43;;;4.28;;
75746;SDS011;64363;52.198;21.020;2023-02-26T02:54:19;9.55;;;3.88;;
75746;SDS011;64363;52.198;21.020;2023-02-26T02:56:55;8.27;;;4.13;;
75746;SDS011;64363;52.198;21.020;2023-02-26T02:59:37;9.88;;;4.88;;
75746;SDS011;64363;52.198;21.020;2023-02-26T03:04:45;9.45;;;4.30;;
75746;SDS011;64363;52.198;21.020;2023-02-26T03:07:11;10.02;;;4.47;;
75746;SDS011;64363;52.198;21.020;2023-02-26T03:09:37;11.15;;;5.32;;
75746;SDS011;64363;52.198;21.020;2023-02-26T03:12:03;9.45;;;4.05;;
75746;SDS011;64363;52.198;21.020;2023-02-26T03:14:29;8.57;;;4.25;;
75746;SDS011;64363;52.198;21.020;2023-02-26T03:20:09;10.25;;;5.45;;
75746;SDS011;64363;52.198;21.020;2023-02-26T03:25:17;11.73;;;4.63;;
75746;SDS011;64363;52.198;21.020;2023-02-26T03:30:51;8.45;;;4.15;;
75746;SDS011;64363;52.198;21.020;2023-02-26T03:33:23;10.10;;;4.93;;
75746;SDS011;64363;52.198;21.020;2023-02-26T03:35:56;10.43;;;4.60;;
75746;SDS011;64363;52.198;21.020;2023-02-26T03:41:07;8.65;;;4.22;;
75746;SDS011;64363;52.198;21.020;2023-02-26T03:46:33;7.50;;;3.80;;
75746;SDS011;64363;52.198;21.020;2023-02-26T03:49:05;10.18;;;4.40;;
75746;SDS011;64363;52.198;21.020;2023-02-26T03:51:34;7.40;;;4.00;;
75746;SDS011;64363;52.198;21.020;2023-02-26T03:54:15;6.78;;;3.40;;
75746;SDS011;64363;52.198;21.020;2023-02-26T03:56:46;5.80;;;3.25;;
75746;SDS011;64363;52.198;21.020;2023-02-26T03:59:13;7.70;;;3.20;;
75746;SDS011;64363;52.198;21.020;2023-02-26T04:01:45;7.57;;;3.42;;
75746;SDS011;64363;52.198;21.020;2023-02-26T04:04:36;7.55;;;3.72;;
75746;SDS011;64363;52.198;21.020;2023-02-26T04:07:07;6.35;;;3.20;;
75746;SDS011;64363;52.198;21.020;2023-02-26T04:09:34;8.98;;;3.45;;
75746;SDS011;64363;52.198;21.020;2023-02-26T04:12:00;7.85;;;3.45;;
75746;SDS011;64363;52.198;21.020;2023-02-26T04:14:26;8.20;;;3.45;;
75746;SDS011;64363;52.198;21.020;2023-02-26T04:16:52;7.50;;;4.00;;
75746;SDS011;64363;52.198;21.020;2023-02-26T04:19:17;6.05;;;3.05;;
75746;SDS011;64363;52.198;21.020;2023-02-26T04:21:43;10.05;;;3.85;;
75746;SDS011;64363;52.198;21.020;2023-02-26T04:24:09;6.95;;;3.40;;
75746;SDS011;64363;52.198;21.020;2023-02-26T04:26:35;6.57;;;3.63;;
75746;SDS011;64363;52.198;21.020;2023-02-26T04:29:01;9.82;;;4.35;;
75746;SDS011;64363;52.198;21.020;2023-02-26T04:31:27;9.20;;;3.70;;
75746;SDS011;64363;52.198;21.020;2023-02-26T04:33:53;7.10;;;3.53;;
75746;SDS011;64363;52.198;21.020;2023-02-26T04:36:19;7.55;;;3.30;;
75746;SDS011;64363;52.198;21.020;2023-02-26T04:38:44;8.25;;;3.30;;
75746;SDS011;64363;52.198;21.020;2023-02-26T04:41:10;7.57;;;3.10;;
75746;SDS011;64363;52.198;21.020;2023-02-26T04:43:36;7.00;;;3.35;;
75746;SDS011;64363;52.198;21.020;2023-02-26T04:46:02;6.70;;;3.17;;
75746;SDS011;64363;52.198;21.020;2023-02-26T04:48:28;6.90;;;3.30;;
75746;SDS011;64363;52.198;21.020;2023-02-26T04:50:54;6.70;;;3.35;;
75746;SDS011;64363;52.198;21.020;2023-02-26T04:53:19;5.68;;;2.53;;
75746;SDS011;64363;52.198;21.020;2023-02-26T04:55:46;6.45;;;2.63;;
75746;SDS011;64363;52.198;21.020;2023-02-26T04:58:13;7.15;;;2.95;;
75746;SDS011;64363;52.198;21.020;2023-02-26T05:00:39;9.45;;;3.08;;
75746;SDS011;64363;52.198;21.020;2023-02-26T05:03:05;5.82;;;2.30;;
75746;SDS011;64363;52.198;21.020;2023-02-26T05:05:31;4.50;;;2.47;;
75746;SDS011;64363;52.198;21.020;2023-02-26T05:07:57;7.28;;;2.75;;
75746;SDS011;64363;52.198;21.020;2023-02-26T05:10:23;6.80;;;3.17;;
75746;SDS011;64363;52.198;21.020;2023-02-26T05:12:49;5.38;;;2.80;;
75746;SDS011;64363;52.198;21.020;2023-02-26T05:15:15;5.35;;;2.55;;
75746;SDS011;64363;52.198;21.020;2023-02-26T05:17:41;7.85;;;3.30;;
75746;SDS011;64363;52.198;21.020;2023-02-26T05:20:07;7.43;;;3.15;;
75746;SDS011;64363;52.198;21.020;2023-02-26T05:22:34;7.90;;;2.75;;
75746;SDS011;64363;52.198;21.020;2023-02-26T05:25:02;5.43;;;2.97;;
75746;SDS011;64363;52.198;21.020;2023-02-26T05:27:29;5.70;;;2.72;;
75746;SDS011;64363;52.198;21.020;2023-02-26T05:29:55;7.00;;;4.07;;
75746;SDS011;64363;52.198;21.020;2023-02-26T05:32:22;6.05;;;3.03;;
75746;SDS011;64363;52.198;21.020;2023-02-26T05:34:47;9.63;;;3.75;;
75746;SDS011;64363;52.198;21.020;2023-02-26T05:37:13;9.55;;;4.63;;
75746;SDS011;64363;52.198;21.020;2023-02-26T05:39:39;7.22;;;3.75;;
75746;SDS011;64363;52.198;21.020;2023-02-26T05:42:08;8.60;;;5.03;;
75746;SDS011;64363;52.198;21.020;2023-02-26T05:44:34;10.25;;;4.70;;
75746;SDS011;64363;52.198;21.020;2023-02-26T05:47:02;11.38;;;4.80;;
75746;SDS011;64363;52.198;21.020;2023-02-26T05:49:28;8.60;;;5.13;;
75746;SDS011;64363;52.198;21.020;2023-02-26T05:51:54;8.43;;;3.95;;
75746;SDS011;64363;52.198;21.020;2023-02-26T05:54:20;11.60;;;4.60;;
75746;SDS011;64363;52.198;21.020;2023-02-26T05:56:46;12.50;;;5.13;;
75746;SDS011;64363;52.198;21.020;2023-02-26T05:59:11;8.63;;;4.72;;
75746;SDS011;64363;52.198;21.020;2023-02-26T06:01:37;8.98;;;4.20;;
75746;SDS011;64363;52.198;21.020;2023-02-26T06:04:03;8.95;;;3.60;;
75746;SDS011;64363;52.198;21.020;2023-02-26T06:06:30;7.68;;;3.20;;
75746;SDS011;64363;52.198;21.020;2023-02-26T06:08:56;8.32;;;3.10;;
75746;SDS011;64363;52.198;21.020;2023-02-26T06:11:21;7.35;;;2.97;;
75746;SDS011;64363;52.198;21.020;2023-02-26T06:13:48;7.20;;;2.95;;
75746;SDS011;64363;52.198;21.020;2023-02-26T06:16:13;5.40;;;2.78;;
75746;SDS011;64363;52.198;21.020;2023-02-26T06:18:39;5.65;;;3.05;;
75746;SDS011;64363;52.198;21.020;2023-02-26T06:21:05;6.93;;;3.15;;
75746;SDS011;64363;52.198;21.020;2023-02-26T06:23:31;4.82;;;2.53;;
75746;SDS011;64363;52.198;21.020;2023-02-26T06:25:56;5.72;;;3.10;;
75746;SDS011;64363;52.198;21.020;2023-02-26T06:28:24;5.75;;;2.95;;
75746;SDS011;64363;52.198;21.020;2023-02-26T06:30:53;5.57;;;2.70;;
75746;SDS011;64363;52.198;21.020;2023-02-26T06:33:19;6.65;;;2.60;;
75746;SDS011;64363;52.198;21.020;2023-02-26T06:35:45;8.98;;;2.92;;
75746;SDS011;64363;52.198;21.020;2023-02-26T06:38:12;6.15;;;3.13;;
75746;SDS011;64363;52.198;21.020;2023-02-26T06:40:37;5.00;;;2.90;;
75746;SDS011;64363;52.198;21.020;2023-02-26T06:43:03;6.13;;;2.70;;
75746;SDS011;64363;52.198;21.020;2023-02-26T06:45:29;4.85;;;3.00;;
75746;SDS011;64363;52.198;21.020;2023-02-26T06:47:55;9.50;;;3.13;;
75746;SDS011;64363;52.198;21.020;2023-02-26T06:50:21;5.05;;;2.85;;
75746;SDS011;64363;52.198;21.020;2023-02-26T06:52:47;8.90;;;3.20;;
75746;SDS011;64363;52.198;21.020;2023-02-26T06:55:12;6.88;;;2.42;;
75746;SDS011;64363;52.198;21.020;2023-02-26T06:57:38;5.88;;;2.65;;
75746;SDS011;64363;52.198;21.020;2023-02-26T07:00:04;6.15;;;2.50;;
75746;SDS011;64363;52.198;21.020;2023-02-26T07:02:31;4.18;;;2.05;;
75746;SDS011;64363;52.198;21.020;2023-02-26T07:04:57;5.45;;;3.05;;
75746;SDS011;64363;52.198;21.020;2023-02-26T07:07:22;5.57;;;2.70;;
75746;SDS011;64363;52.198;21.020;2023-02-26T07:09:48;6.22;;;2.53;;
75746;SDS011;64363;52.198;21.020;2023-02-26T07:12:14;6.00;;;2.40;;
75746;SDS011;64363;52.198;21.020;2023-02-26T07:14:40;5.25;;;2.42;;
75746;SDS011;64363;52.198;21.020;2023-02-26T07:17:07;6.05;;;2.63;;
75746;SDS011;64363;52.198;21.020;2023-02-26T07:19:33;6.05;;;2.90;;
75746;SDS011;64363;52.198;21.020;2023-02-26T07:21:59;4.05;;;1.95;;
75746;SDS011;64363;52.198;21.020;2023-02-26T07:24:24;5.97;;;2.50;;
75746;SDS011;64363;52.198;21.020;2023-02-26T07:26:50;5.45;;;2.78;;
75746;SDS011;64363;52.198;21.020;2023-02-26T07:29:16;5.32;;;2.47;;
75746;SDS011;64363;52.198;21.020;2023-02-26T07:31:42;5.32;;;2.63;;
75746;SDS011;64363;52.198;21.020;2023-02-26T07:34:07;7.38;;;2.97;;
75746;SDS011;64363;52.198;21.020;2023-02-26T07:36:33;4.90;;;2.33;;
75746;SDS011;64363;52.198;21.020;2023-02-26T07:38:59;6.35;;;2.40;;
75746;SDS011;64363;52.198;21.020;2023-02-26T07:41:25;4.30;;;2.25;;
75746;SDS011;64363;52.198;21.020;2023-02-26T07:43:50;6.00;;;2.72;;
75746;SDS011;64363;52.198;21.020;2023-02-26T07:46:16;7.10;;;2.85;;
75746;SDS011;64363;52.198;21.020;2023-02-26T07:48:41;3.83;;;1.90;;
75746;SDS011;64363;52.198;21.020;2023-02-26T07:51:08;4.55;;;2.63;;
75746;SDS011;64363;52.198;21.020;2023-02-26T07:53:35;4.63;;;2.83;;
75746;SDS011;64363;52.198;21.020;2023-02-26T07:56:01;6.47;;;2.97;;
75746;SDS011;64363;52.198;21.020;2023-02-26T07:58:27;7.20;;;2.63;;
75746;SDS011;64363;52.198;21.020;2023-02-26T08:00:53;4.30;;;2.30;;
75746;SDS011;64363;52.198;21.020;2023-02-26T08:03:19;5.75;;;2.42;;
75746;SDS011;64363;52.198;21.020;2023-02-26T08:05:45;9.40;;;2.70;;
75746;SDS011;64363;52.198;21.020;2023-02-26T08:08:11;5.05;;;2.70;;
75746;SDS011;64363;52.198;21.020;2023-02-26T08:10:37;5.47;;;3.05;;
75746;SDS011;64363;52.198;21.020;2023-02-26T08:13:03;4.53;;;2.38;;
75746;SDS011;64363;52.198;21.020;2023-02-26T08:15:29;5.97;;;3.03;;
75746;SDS011;64363;52.198;21.020;2023-02-26T08:17:55;7.35;;;2.60;;
75746;SDS011;64363;52.198;21.020;2023-02-26T08:20:21;5.30;;;3.20;;
75746;SDS011;64363;52.198;21.020;2023-02-26T08:22:47;8.98;;;2.58;;
75746;SDS011;64363;52.198;21.020;2023-02-26T08:25:14;5.32;;;3.00;;
75746;SDS011;64363;52.198;21.020;2023-02-26T08:27:40;5.13;;;3.25;;
75746;SDS011;64363;52.198;21.020;2023-02-26T08:30:06;7.10;;;2.67;;
75746;SDS011;64363;52.198;21.020;2023-02-26T08:32:33;5.68;;;2.80;;
75746;SDS011;64363;52.198;21.020;2023-02-26T08:34:59;4.15;;;2.45;;
75746;SDS011;64363;52.198;21.020;2023-02-26T08:37:25;4.45;;;2.40;;
75746;SDS011;64363;52.198;21.020;2023-02-26T08:39:52;4.97;;;2.50;;
75746;SDS011;64363;52.198;21.020;2023-02-26T08:42:18;5.20;;;2.10;;
75746;SDS011;64363;52.198;21.020;2023-02-26T08:44:45;4.45;;;2.03;;
75746;SDS011;64363;52.198;21.020;2023-02-26T08:47:11;3.50;;;1.70;;
75746;SDS011;64363;52.198;21.020;2023-02-26T08:49:38;4.43;;;2.20;;
75746;SDS011;64363;52.198;21.020;2023-02-26T08:52:03;4.10;;;2.30;;
75746;SDS011;64363;52.198;21.020;2023-02-26T08:54:29;6.57;;;2.58;;
75746;SDS011;64363;52.198;21.020;2023-02-26T08:56:55;7.45;;;2.58;;
75746;SDS011;64363;52.198;21.020;2023-02-26T08:59:23;4.65;;;2.10;;
75746;SDS011;64363;52.198;21.020;2023-02-26T09:01:49;5.15;;;2.15;;
75746;SDS011;64363;52.198;21.020;2023-02-26T09:04:15;3.35;;;2.05;;
75746;SDS011;64363;52.198;21.020;2023-02-26T09:06:40;4.00;;;2.05;;
75746;SDS011;64363;52.198;21.020;2023-02-26T09:09:06;5.35;;;2.30;;
75746;SDS011;64363;52.198;21.020;2023-02-26T09:11:32;4.88;;;2.05;;
75746;SDS011;64363;52.198;21.020;2023-02-26T09:13:59;5.22;;;2.08;;
75746;SDS011;64363;52.198;21.020;2023-02-26T09:16:26;3.50;;;1.88;;
75746;SDS011;64363;52.198;21.020;2023-02-26T09:18:52;3.45;;;1.75;;
75746;SDS011;64363;52.198;21.020;2023-02-26T09:21:17;3.33;;;1.70;;
75746;SDS011;64363;52.198;21.020;2023-02-26T09:23:43;3.90;;;1.67;;
75746;SDS011;64363;52.198;21.020;2023-02-26T09:26:09;14.73;;;4.80;;
75746;SDS011;64363;52.198;21.020;2023-02-26T09:28:35;11.73;;;5.32;;
75746;SDS011;64363;52.198;21.020;2023-02-26T09:31:00;15.43;;;5.45;;
75746;SDS011;64363;52.198;21.020;2023-02-26T09:33:26;19.50;;;7.22;;
75746;SDS011;64363;52.198;21.020;2023-02-26T09:35:52;5.95;;;2.30;;
75746;SDS011;64363;52.198;21.020;2023-02-26T09:38:18;10.18;;;5.53;;
75746;SDS011;64363;52.198;21.020;2023-02-26T09:40:46;7.60;;;2.60;;
75746;SDS011;64363;52.198;21.020;2023-02-26T09:51:34;6.97;;;3.08;;
75746;SDS011;64363;52.198;21.020;2023-02-26T09:54:03;5.20;;;2.92;;
75746;SDS011;64363;52.198;21.020;2023-02-26T09:56:39;4.55;;;2.33;;
75746;SDS011;64363;52.198;21.020;2023-02-26T09:59:07;6.07;;;2.85;;
75746;SDS011;64363;52.198;21.020;2023-02-26T10:01:36;4.47;;;1.90;;
75746;SDS011;64363;52.198;21.020;2023-02-26T10:07:14;8.15;;;3.30;;
75746;SDS011;64363;52.198;21.020;2023-02-26T10:12:28;6.82;;;2.97;;
75746;SDS011;64363;52.198;21.020;2023-02-26T10:17:48;6.68;;;2.72;;
75746;SDS011;64363;52.198;21.020;2023-02-26T10:23:26;6.90;;;3.20;;
75746;SDS011;64363;52.198;21.020;2023-02-26T10:25:52;6.20;;;2.90;;
75746;SDS011;64363;52.198;21.020;2023-02-26T10:28:31;8.45;;;3.80;;
75746;SDS011;64363;52.198;21.020;2023-02-26T10:36:42;9.73;;;3.38;;
75746;SDS011;64363;52.198;21.020;2023-02-26T10:39:18;7.35;;;3.13;;
75746;SDS011;64363;52.198;21.020;2023-02-26T10:41:51;6.38;;;3.58;;
75746;SDS011;64363;52.198;21.020;2023-02-26T10:44:20;11.45;;;4.32;;
75746;SDS011;64363;52.198;21.020;2023-02-26T10:49:48;12.38;;;5.43;;
75746;SDS011;64363;52.198;21.020;2023-02-26T10:52:20;10.82;;;4.50;;
75746;SDS011;64363;52.198;21.020;2023-02-26T10:54:59;13.63;;;4.70;;
75746;SDS011;64363;52.198;21.020;2023-02-26T10:57:30;8.73;;;3.85;;
75746;SDS011;64363;52.198;21.020;2023-02-26T11:00:00;12.80;;;5.65;;
75746;SDS011;64363;52.198;21.020;2023-02-26T11:04:51;7.32;;;2.97;;
75746;SDS011;64363;52.198;21.020;2023-02-26T11:07:17;7.18;;;3.45;;
75746;SDS011;64363;52.198;21.020;2023-02-26T11:09:44;7.68;;;3.55;;
75746;SDS011;64363;52.198;21.020;2023-02-26T11:14:37;9.05;;;3.42;;
75746;SDS011;64363;52.198;21.020;2023-02-26T11:17:05;9.13;;;2.83;;
75746;SDS011;64363;52.198;21.020;2023-02-26T11:19:36;6.50;;;2.58;;
75746;SDS011;64363;52.198;21.020;2023-02-26T11:22:05;4.78;;;2.13;;
75746;SDS011;64363;52.198;21.020;2023-02-26T11:24:36;5.35;;;2.60;;
75746;SDS011;64363;52.198;21.020;2023-02-26T11:27:17;6.10;;;2.33;;
75746;SDS011;64363;52.198;21.020;2023-02-26T11:29:46;6.20;;;2.30;;
75746;SDS011;64363;52.198;21.020;2023-02-26T11:32:15;5.22;;;2.53;;
75746;SDS011;64363;52.198;21.020;2023-02-26T11:34:47;8.50;;;2.97;;
75746;SDS011;64363;52.198;21.020;2023-02-26T11:37:30;5.70;;;2.92;;
75746;SDS011;64363;52.198;21.020;2023-02-26T11:40:04;8.27;;;2.75;;
75746;SDS011;64363;52.198;21.020;2023-02-26T11:42:41;3.30;;;1.92;;
75746;SDS011;64363;52.198;21.020;2023-02-26T11:45:13;5.13;;;2.15;;
75746;SDS011;64363;52.198;21.020;2023-02-26T11:47:42;5.78;;;2.97;;
75746;SDS011;64363;52.198;21.020;2023-02-26T11:50:19;6.32;;;2.22;;
75746;SDS011;64363;52.198;21.020;2023-02-26T11:52:53;5.20;;;2.08;;
75746;SDS011;64363;52.198;21.020;2023-02-26T11:55:34;5.45;;;1.83;;
75746;SDS011;64363;52.198;21.020;2023-02-26T11:58:04;6.60;;;1.90;;
75746;SDS011;64363;52.198;21.020;2023-02-26T12:00:41;5.18;;;2.08;;
75746;SDS011;64363;52.198;21.020;2023-02-26T12:03:14;5.43;;;2.17;;
75746;SDS011;64363;52.198;21.020;2023-02-26T12:05:47;7.53;;;2.40;;
75746;SDS011;64363;52.198;21.020;2023-02-26T12:08:36;7.38;;;2.33;;
75746;SDS011;64363;52.198;21.020;2023-02-26T12:11:12;5.40;;;2.45;;
75746;SDS011;64363;52.198;21.020;2023-02-26T12:14:22;10.63;;;3.05;;
75746;SDS011;64363;52.198;21.020;2023-02-26T12:21:14;5.22;;;2.85;;
75746;SDS011;64363;52.198;21.020;2023-02-26T12:34:33;6.10;;;2.50;;
75746;SDS011;64363;52.198;21.020;2023-02-26T12:45:43;9.30;;;3.20;;
75746;SDS011;64363;52.198;21.020;2023-02-26T12:48:30;6.35;;;2.78;;
75746;SDS011;64363;52.198;21.020;2023-02-26T12:51:10;6.68;;;3.50;;
75746;SDS011;64363;52.198;21.020;2023-02-26T13:02:25;5.50;;;2.65;;
75746;SDS011;64363;52.198;21.020;2023-02-26T13:10:38;9.20;;;2.30;;
75746;SDS011;64363;52.198;21.020;2023-02-26T13:16:05;5.05;;;2.00;;
75746;SDS011;64363;52.198;21.020;2023-02-26T13:18:50;6.22;;;2.00;;
75746;SDS011;64363;52.198;21.020;2023-02-26T13:24:05;5.18;;;2.30;;
75746;SDS011;64363;52.198;21.020;2023-02-26T13:26:36;5.95;;;2.45;;
75746;SDS011;64363;52.198;21.020;2023-02-26T13:29:25;8.05;;;3.95;;
75746;SDS011;64363;52.198;21.020;2023-02-26T13:32:06;4.78;;;2.13;;
75746;SDS011;64363;52.198;21.020;2023-02-26T13:34:53;4.22;;;2.10;;
75746;SDS011;64363;52.198;21.020;2023-02-26T13:37:25;6.13;;;2.63;;
75746;SDS011;64363;52.198;21.020;2023-02-26T13:40:06;7.13;;;3.00;;
75746;SDS011;64363;52.198;21.020;2023-02-26T13:42:48;5.25;;;2.08;;
75746;SDS011;64363;52.198;21.020;2023-02-26T13:50:56;8.55;;;3.55;;
75746;SDS011;64363;52.198;21.020;2023-02-26T13:56:14;6.25;;;2.85;;
75746;SDS011;64363;52.198;21.020;2023-02-26T14:01:28;8.55;;;2.95;;
75746;SDS011;64363;52.198;21.020;2023-02-26T14:11:57;7.43;;;1.98;;
75746;SDS011;64363;52.198;21.020;2023-02-26T14:19:37;12.60;;;2.47;;
75746;SDS011;64363;52.198;21.020;2023-02-26T14:22:19;4.22;;;2.03;;
75746;SDS011;64363;52.198;21.020;2023-02-26T14:24:55;5.82;;;2.10;;
75746;SDS011;64363;52.198;21.020;2023-02-26T14:27:44;5.30;;;2.20;;
75746;SDS011;64363;52.198;21.020;2023-02-26T14:38:17;9.38;;;2.42;;
75746;SDS011;64363;52.198;21.020;2023-02-26T14:40:53;4.60;;;2.60;;
75746;SDS011;64363;52.198;21.020;2023-02-26T14:46:04;5.45;;;1.80;;
75746;SDS011;64363;52.198;21.020;2023-02-26T14:48:32;5.55;;;1.85;;
75746;SDS011;64363;52.198;21.020;2023-02-26T15:00:09;10.77;;;3.25;;
75746;SDS011;64363;52.198;21.020;2023-02-26T15:14:47;9.05;;;2.28;;
75746;SDS011;64363;52.198;21.020;2023-02-26T15:17:21;6.78;;;2.58;;
75746;SDS011;64363;52.198;21.020;2023-02-26T15:23:05;13.32;;;3.13;;
75746;SDS011;64363;52.198;21.020;2023-02-26T15:25:50;6.15;;;2.58;;
75746;SDS011;64363;52.198;21.020;2023-02-26T15:28:21;10.32;;;3.25;;
75746;SDS011;64363;52.198;21.020;2023-02-26T15:31:06;7.80;;;2.40;;
75746;SDS011;64363;52.198;21.020;2023-02-26T15:33:34;7.88;;;3.13;;
75746;SDS011;64363;52.198;21.020;2023-02-26T15:36:00;9.38;;;2.72;;
75746;SDS011;64363;52.198;21.020;2023-02-26T15:38:42;8.02;;;2.67;;
75746;SDS011;64363;52.198;21.020;2023-02-26T15:41:10;4.78;;;2.08;;
75746;SDS011;64363;52.198;21.020;2023-02-26T15:43:37;11.10;;;2.85;;
75746;SDS011;64363;52.198;21.020;2023-02-26T15:46:05;4.90;;;2.70;;
75746;SDS011;64363;52.198;21.020;2023-02-26T15:48:33;7.00;;;2.58;;
75746;SDS011;64363;52.198;21.020;2023-02-26T15:51:07;10.43;;;2.67;;
75746;SDS011;64363;52.198;21.020;2023-02-26T15:53:36;10.52;;;2.80;;
75746;SDS011;64363;52.198;21.020;2023-02-26T15:56:16;6.00;;;2.58;;
75746;SDS011;64363;52.198;21.020;2023-02-26T15:58:51;5.75;;;2.42;;
75746;SDS011;64363;52.198;21.020;2023-02-26T16:01:20;9.95;;;3.13;;
75746;SDS011;64363;52.198;21.020;2023-02-26T16:03:49;7.35;;;2.83;;
75746;SDS011;64363;52.198;21.020;2023-02-26T16:06:18;11.93;;;4.47;;
75746;SDS011;64363;52.198;21.020;2023-02-26T16:09:16;10.25;;;3.92;;
75746;SDS011;64363;52.198;21.020;2023-02-26T16:12:05;13.70;;;3.28;;
75746;SDS011;64363;52.198;21.020;2023-02-26T16:14:36;8.25;;;3.00;;
75746;SDS011;64363;52.198;21.020;2023-02-26T16:17:06;11.15;;;3.47;;
75746;SDS011;64363;52.198;21.020;2023-02-26T16:19:40;7.60;;;3.45;;
75746;SDS011;64363;52.198;21.020;2023-02-26T16:24:54;6.30;;;3.13;;
75746;SDS011;64363;52.198;21.020;2023-02-26T16:27:28;8.90;;;3.15;;
75746;SDS011;64363;52.198;21.020;2023-02-26T16:29:57;7.80;;;3.30;;
75746;SDS011;64363;52.198;21.020;2023-02-26T16:32:25;6.97;;;3.00;;
75746;SDS011;64363;52.198;21.020;2023-02-26T16:34:55;11.15;;;2.97;;
75746;SDS011;64363;52.198;21.020;2023-02-26T16:40:40;6.15;;;3.08;;
75746;SDS011;64363;52.198;21.020;2023-02-26T16:46:14;8.23;;;3.28;;
75746;SDS011;64363;52.198;21.020;2023-02-26T16:48:54;10.38;;;3.50;;
75746;SDS011;64363;52.198;21.020;2023-02-26T16:51:24;8.45;;;3.25;;
75746;SDS011;64363;52.198;21.020;2023-02-26T16:53:58;9.98;;;3.90;;
75746;SDS011;64363;52.198;21.020;2023-02-26T16:56:28;10.35;;;3.38;;
75746;SDS011;64363;52.198;21.020;2023-02-26T17:01:32;11.18;;;3.88;;
75746;SDS011;64363;52.198;21.020;2023-02-26T17:04:01;8.65;;;3.22;;
75746;SDS011;64363;52.198;21.020;2023-02-26T17:06:28;11.18;;;3.72;;
75746;SDS011;64363;52.198;21.020;2023-02-26T17:08:56;7.95;;;3.30;;
75746;SDS011;64363;52.198;21.020;2023-02-26T17:16:46;9.55;;;3.50;;
75746;SDS011;64363;52.198;21.020;2023-02-26T17:19:12;13.32;;;4.07;;
75746;SDS011;64363;52.198;21.020;2023-02-26T17:21:42;7.00;;;2.97;;
75746;SDS011;64363;52.198;21.020;2023-02-26T17:24:14;9.00;;;3.63;;
75746;SDS011;64363;52.198;21.020;2023-02-26T17:26:43;10.95;;;5.10;;
75746;SDS011;64363;52.198;21.020;2023-02-26T17:29:18;7.80;;;4.18;;
75746;SDS011;64363;52.198;21.020;2023-02-26T17:31:47;11.70;;;3.75;;
75746;SDS011;64363;52.198;21.020;2023-02-26T17:34:14;17.40;;;4.20;;
75746;SDS011;64363;52.198;21.020;2023-02-26T17:36:42;8.75;;;3.55;;
75746;SDS011;64363;52.198;21.020;2023-02-26T17:39:08;9.20;;;3.22;;
75746;SDS011;64363;52.198;21.020;2023-02-26T17:41:37;9.00;;;3.45;;
75746;SDS011;64363;52.198;21.020;2023-02-26T17:44:03;8.77;;;3.08;;
75746;SDS011;64363;52.198;21.020;2023-02-26T17:46:29;9.13;;;3.38;;
75746;SDS011;64363;52.198;21.020;2023-02-26T17:48:56;9.30;;;3.08;;
75746;SDS011;64363;52.198;21.020;2023-02-26T17:51:22;7.97;;;3.22;;
75746;SDS011;64363;52.198;21.020;2023-02-26T17:53:48;7.60;;;3.60;;
75746;SDS011;64363;52.198;21.020;2023-02-26T17:56:18;10.45;;;3.72;;
75746;SDS011;64363;52.198;21.020;2023-02-26T17:58:48;11.23;;;3.97;;
75746;SDS011;64363;52.198;21.020;2023-02-26T18:01:14;13.85;;;4.38;;
75746;SDS011;64363;52.198;21.020;2023-02-26T18:03:40;12.35;;;4.13;;
75746;SDS011;64363;52.198;21.020;2023-02-26T18:06:07;17.35;;;4.82;;
75746;SDS011;64363;52.198;21.020;2023-02-26T18:11:05;13.32;;;5.30;;
75746;SDS011;64363;52.198;21.020;2023-02-26T18:13:32;14.38;;;5.82;;
75746;SDS011;64363;52.198;21.020;2023-02-26T18:15:58;18.83;;;5.68;;
75746;SDS011;64363;52.198;21.020;2023-02-26T18:18:26;10.93;;;4.72;;
75746;SDS011;64363;52.198;21.020;2023-02-26T18:20:53;13.18;;;5.38;;